sensor_id;sensor_type;location;lat;lon;timestamp;temperature;humidity
65374;SHT31;52070;53.760;9.678;2022-12-07T00:01:36;3.00;96.13
65374;SHT31;52070;53.760;9.678;2022-12-07T00:04:06;3.00;96.13
65374;SHT31;52070;53.760;9.678;2022-12-07T00:06:37;2.95;96.14
65374;SHT31;52070;53.760;9.678;2022-12-07T00:09:05;2.91;96.12
65374;SHT31;52070;53.760;9.678;2022-12-07T00:11:33;2.85;96.10
65374;SHT31;52070;53.760;9.678;2022-12-07T00:14:02;2.80;96.06
65374;SHT31;52070;53.760;9.678;2022-12-07T00:16:31;2.77;96.03
65374;SHT31;52070;53.760;9.678;2022-12-07T00:18:59;2.76;96.04
65374;SHT31;52070;53.760;9.678;2022-12-07T00:21:28;2.68;96.04
65374;SHT31;52070;53.760;9.678;2022-12-07T00:23:57;2.65;96.04
65374;SHT31;52070;53.760;9.678;2022-12-07T00:26:26;2.73;96.03
65374;SHT31;52070;53.760;9.678;2022-12-07T00:28:54;2.65;96.06
65374;SHT31;52070;53.760;9.678;2022-12-07T00:31:23;2.64;96.05
65374;SHT31;52070;53.760;9.678;2022-12-07T00:33:50;2.64;96.05
65374;SHT31;52070;53.760;9.678;2022-12-07T00:36:19;2.67;96.09
65374;SHT31;52070;53.760;9.678;2022-12-07T00:38:46;2.68;96.16
65374;SHT31;52070;53.760;9.678;2022-12-07T00:41:16;2.68;96.16
65374;SHT31;52070;53.760;9.678;2022-12-07T00:43:44;2.76;96.24
65374;SHT31;52070;53.760;9.678;2022-12-07T00:46:12;2.79;96.24
65374;SHT31;52070;53.760;9.678;2022-12-07T00:48:39;2.80;96.32
65374;SHT31;52070;53.760;9.678;2022-12-07T00:51:07;2.83;96.36
65374;SHT31;52070;53.760;9.678;2022-12-07T00:53:34;2.87;96.37
65374;SHT31;52070;53.760;9.678;2022-12-07T00:56:05;2.85;96.41
65374;SHT31;52070;53.760;9.678;2022-12-07T00:58:33;2.94;96.39
65374;SHT31;52070;53.760;9.678;2022-12-07T01:01:01;2.97;96.43
65374;SHT31;52070;53.760;9.678;2022-12-07T01:03:28;2.97;96.39
65374;SHT31;52070;53.760;9.678;2022-12-07T01:05:56;2.97;96.37
65374;SHT31;52070;53.760;9.678;2022-12-07T01:08:24;3.01;96.33
65374;SHT31;52070;53.760;9.678;2022-12-07T01:10:58;2.98;96.33
65374;SHT31;52070;53.760;9.678;2022-12-07T01:13:26;2.97;96.29
65374;SHT31;52070;53.760;9.678;2022-12-07T01:15:59;2.95;96.27
65374;SHT31;52070;53.760;9.678;2022-12-07T01:18:27;2.95;96.27
65374;SHT31;52070;53.760;9.678;2022-12-07T01:20:58;2.93;96.25
65374;SHT31;52070;53.760;9.678;2022-12-07T01:23:25;2.93;96.25
65374;SHT31;52070;53.760;9.678;2022-12-07T01:25:55;2.97;96.21
65374;SHT31;52070;53.760;9.678;2022-12-07T01:28:22;2.93;96.23
65374;SHT31;52070;53.760;9.678;2022-12-07T01:30:57;2.87;96.18
65374;SHT31;52070;53.760;9.678;2022-12-07T01:33:26;2.91;96.18
65374;SHT31;52070;53.760;9.678;2022-12-07T01:35:53;2.88;96.19
65374;SHT31;52070;53.760;9.678;2022-12-07T01:38:20;2.88;96.17
65374;SHT31;52070;53.760;9.678;2022-12-07T01:40:54;2.88;96.13
65374;SHT31;52070;53.760;9.678;2022-12-07T01:43:22;2.84;96.12
65374;SHT31;52070;53.760;9.678;2022-12-07T01:45:50;2.84;96.05
65374;SHT31;52070;53.760;9.678;2022-12-07T01:48:20;2.79;95.96
65374;SHT31;52070;53.760;9.678;2022-12-07T01:50:50;2.80;95.88
65374;SHT31;52070;53.760;9.678;2022-12-07T01:53:18;2.80;95.74
65374;SHT31;52070;53.760;9.678;2022-12-07T01:55:49;2.77;95.59
65374;SHT31;52070;53.760;9.678;2022-12-07T01:58:16;2.68;95.46
65374;SHT31;52070;53.760;9.678;2022-12-07T02:00:43;2.71;95.32
65374;SHT31;52070;53.760;9.678;2022-12-07T02:03:14;2.70;95.20
65374;SHT31;52070;53.760;9.678;2022-12-07T02:05:45;2.65;95.09
65374;SHT31;52070;53.760;9.678;2022-12-07T02:08:13;2.64;94.94
65374;SHT31;52070;53.760;9.678;2022-12-07T02:10:40;2.61;94.76
65374;SHT31;52070;53.760;9.678;2022-12-07T02:13:10;2.57;94.54
65374;SHT31;52070;53.760;9.678;2022-12-07T02:15:46;2.52;94.36
65374;SHT31;52070;53.760;9.678;2022-12-07T02:18:20;2.52;94.19
65374;SHT31;52070;53.760;9.678;2022-12-07T02:20:56;2.47;94.00
65374;SHT31;52070;53.760;9.678;2022-12-07T02:23:52;2.43;93.84
65374;SHT31;52070;53.760;9.678;2022-12-07T02:26:44;2.40;93.74
65374;SHT31;52070;53.760;9.678;2022-12-07T02:29:21;2.34;93.64
65374;SHT31;52070;53.760;9.678;2022-12-07T02:31:55;2.34;93.58
65374;SHT31;52070;53.760;9.678;2022-12-07T02:34:33;2.33;93.56
65374;SHT31;52070;53.760;9.678;2022-12-07T02:37:05;2.30;93.57
65374;SHT31;52070;53.760;9.678;2022-12-07T02:39:40;2.29;93.54
65374;SHT31;52070;53.760;9.678;2022-12-07T02:42:14;2.25;93.64
65374;SHT31;52070;53.760;9.678;2022-12-07T02:44:44;2.25;93.67
65374;SHT31;52070;53.760;9.678;2022-12-07T02:47:14;2.25;93.68
65374;SHT31;52070;53.760;9.678;2022-12-07T02:49:42;2.23;93.69
65374;SHT31;52070;53.760;9.678;2022-12-07T02:52:09;2.20;93.72
65374;SHT31;52070;53.760;9.678;2022-12-07T02:54:36;2.13;93.75
65374;SHT31;52070;53.760;9.678;2022-12-07T02:57:14;2.09;93.80
65374;SHT31;52070;53.760;9.678;2022-12-07T02:59:55;2.03;93.89
65374;SHT31;52070;53.760;9.678;2022-12-07T03:02:31;2.03;93.94
65374;SHT31;52070;53.760;9.678;2022-12-07T03:05:06;2.03;94.03
65374;SHT31;52070;53.760;9.678;2022-12-07T03:07:42;2.01;94.16
65374;SHT31;52070;53.760;9.678;2022-12-07T03:10:18;1.98;94.21
65374;SHT31;52070;53.760;9.678;2022-12-07T03:12:53;1.95;94.32
65374;SHT31;52070;53.760;9.678;2022-12-07T03:15:27;1.96;94.42
65374;SHT31;52070;53.760;9.678;2022-12-07T03:17:57;2.01;94.54
65374;SHT31;52070;53.760;9.678;2022-12-07T03:20:27;1.96;94.61
65374;SHT31;52070;53.760;9.678;2022-12-07T03:22:56;1.98;94.67
65374;SHT31;52070;53.760;9.678;2022-12-07T03:25:25;1.96;94.70
65374;SHT31;52070;53.760;9.678;2022-12-07T03:27:54;1.99;94.71
65374;SHT31;52070;53.760;9.678;2022-12-07T03:30:26;2.02;94.75
65374;SHT31;52070;53.760;9.678;2022-12-07T03:32:58;1.94;94.76
65374;SHT31;52070;53.760;9.678;2022-12-07T03:35:29;1.85;94.70
65374;SHT31;52070;53.760;9.678;2022-12-07T03:38:00;1.86;94.74
65374;SHT31;52070;53.760;9.678;2022-12-07T03:40:32;1.83;94.76
65374;SHT31;52070;53.760;9.678;2022-12-07T03:43:00;1.79;94.77
65374;SHT31;52070;53.760;9.678;2022-12-07T03:45:34;1.77;94.79
65374;SHT31;52070;53.760;9.678;2022-12-07T03:48:07;1.77;94.88
65374;SHT31;52070;53.760;9.678;2022-12-07T03:50:40;1.71;94.92
65374;SHT31;52070;53.760;9.678;2022-12-07T03:53:12;1.69;94.97
65374;SHT31;52070;53.760;9.678;2022-12-07T03:55:43;1.68;95.02
65374;SHT31;52070;53.760;9.678;2022-12-07T03:58:13;1.69;95.05
65374;SHT31;52070;53.760;9.678;2022-12-07T04:00:44;1.64;95.08
65374;SHT31;52070;53.760;9.678;2022-12-07T04:03:11;1.67;95.16
65374;SHT31;52070;53.760;9.678;2022-12-07T04:05:39;1.65;95.18
65374;SHT31;52070;53.760;9.678;2022-12-07T04:08:06;1.65;95.22
65374;SHT31;52070;53.760;9.678;2022-12-07T04:10:33;1.62;95.24
65374;SHT31;52070;53.760;9.678;2022-12-07T04:13:00;1.64;95.28
65374;SHT31;52070;53.760;9.678;2022-12-07T04:15:27;1.62;95.31
65374;SHT31;52070;53.760;9.678;2022-12-07T04:17:55;1.59;95.32
65374;SHT31;52070;53.760;9.678;2022-12-07T04:20:22;1.58;95.29
65374;SHT31;52070;53.760;9.678;2022-12-07T04:22:49;1.57;95.32
65374;SHT31;52070;53.760;9.678;2022-12-07T04:25:16;1.59;95.34
65374;SHT31;52070;53.760;9.678;2022-12-07T04:27:43;1.59;95.35
65374;SHT31;52070;53.760;9.678;2022-12-07T04:30:10;1.62;95.33
65374;SHT31;52070;53.760;9.678;2022-12-07T04:32:37;1.55;95.28
65374;SHT31;52070;53.760;9.678;2022-12-07T04:35:07;1.57;95.20
65374;SHT31;52070;53.760;9.678;2022-12-07T04:37:34;1.54;95.21
65374;SHT31;52070;53.760;9.678;2022-12-07T04:40:01;1.52;95.13
65374;SHT31;52070;53.760;9.678;2022-12-07T04:42:28;1.51;95.14
65374;SHT31;52070;53.760;9.678;2022-12-07T04:44:55;1.51;95.08
65374;SHT31;52070;53.760;9.678;2022-12-07T04:47:22;1.54;95.03
65374;SHT31;52070;53.760;9.678;2022-12-07T04:49:49;1.57;94.97
65374;SHT31;52070;53.760;9.678;2022-12-07T04:52:17;1.55;94.92
65374;SHT31;52070;53.760;9.678;2022-12-07T04:54:44;1.57;94.82
65374;SHT31;52070;53.760;9.678;2022-12-07T04:57:11;1.59;94.72
65374;SHT31;52070;53.760;9.678;2022-12-07T04:59:38;1.59;94.55
65374;SHT31;52070;53.760;9.678;2022-12-07T05:02:04;1.59;94.38
65374;SHT31;52070;53.760;9.678;2022-12-07T05:04:31;1.57;94.19
65374;SHT31;52070;53.760;9.678;2022-12-07T05:06:58;1.58;93.99
65374;SHT31;52070;53.760;9.678;2022-12-07T05:09:27;1.59;93.75
65374;SHT31;52070;53.760;9.678;2022-12-07T05:11:53;1.55;93.53
65374;SHT31;52070;53.760;9.678;2022-12-07T05:14:21;1.57;93.35
65374;SHT31;52070;53.760;9.678;2022-12-07T05:16:50;1.50;93.19
65374;SHT31;52070;53.760;9.678;2022-12-07T05:19:18;1.48;93.16
65374;SHT31;52070;53.760;9.678;2022-12-07T05:21:45;1.45;93.12
65374;SHT31;52070;53.760;9.678;2022-12-07T05:24:14;1.45;93.13
65374;SHT31;52070;53.760;9.678;2022-12-07T05:26:42;1.45;93.16
65374;SHT31;52070;53.760;9.678;2022-12-07T05:29:11;1.51;93.09
65374;SHT31;52070;53.760;9.678;2022-12-07T05:31:38;1.47;92.97
65374;SHT31;52070;53.760;9.678;2022-12-07T05:34:05;1.44;92.89
65374;SHT31;52070;53.760;9.678;2022-12-07T05:36:32;1.40;92.95
65374;SHT31;52070;53.760;9.678;2022-12-07T05:38:59;1.38;93.06
65374;SHT31;52070;53.760;9.678;2022-12-07T05:41:26;1.41;93.19
65374;SHT31;52070;53.760;9.678;2022-12-07T05:44:12;1.44;93.28
65374;SHT31;52070;53.760;9.678;2022-12-07T05:46:39;1.45;93.38
65374;SHT31;52070;53.760;9.678;2022-12-07T05:49:06;1.45;93.41
65374;SHT31;52070;53.760;9.678;2022-12-07T05:51:33;1.50;93.49
65374;SHT31;52070;53.760;9.678;2022-12-07T05:54:00;1.47;93.47
65374;SHT31;52070;53.760;9.678;2022-12-07T05:56:27;1.48;93.49
65374;SHT31;52070;53.760;9.678;2022-12-07T05:58:54;1.50;93.46
65374;SHT31;52070;53.760;9.678;2022-12-07T06:01:40;1.55;93.41
65374;SHT31;52070;53.760;9.678;2022-12-07T06:04:07;1.55;93.31
65374;SHT31;52070;53.760;9.678;2022-12-07T06:06:34;1.54;93.29
65374;SHT31;52070;53.760;9.678;2022-12-07T06:09:01;1.55;93.27
65374;SHT31;52070;53.760;9.678;2022-12-07T06:11:28;1.57;93.25
65374;SHT31;52070;53.760;9.678;2022-12-07T06:14:13;1.62;93.25
65374;SHT31;52070;53.760;9.678;2022-12-07T06:16:41;1.61;93.26
65374;SHT31;52070;53.760;9.678;2022-12-07T06:19:08;1.69;93.28
65374;SHT31;52070;53.760;9.678;2022-12-07T06:21:35;1.67;93.29
65374;SHT31;52070;53.760;9.678;2022-12-07T06:24:03;1.71;93.31
65374;SHT31;52070;53.760;9.678;2022-12-07T06:26:30;1.72;93.36
65374;SHT31;52070;53.760;9.678;2022-12-07T06:28:57;1.74;93.42
65374;SHT31;52070;53.760;9.678;2022-12-07T06:31:24;1.75;93.50
65374;SHT31;52070;53.760;9.678;2022-12-07T06:33:57;1.78;93.55
65374;SHT31;52070;53.760;9.678;2022-12-07T06:36:24;1.81;93.60
65374;SHT31;52070;53.760;9.678;2022-12-07T06:38:51;1.83;93.70
65374;SHT31;52070;53.760;9.678;2022-12-07T06:41:18;1.88;93.70
65374;SHT31;52070;53.760;9.678;2022-12-07T06:43:45;1.85;93.73
65374;SHT31;52070;53.760;9.678;2022-12-07T06:46:12;1.86;93.72
65374;SHT31;52070;53.760;9.678;2022-12-07T06:48:39;1.94;93.79
65374;SHT31;52070;53.760;9.678;2022-12-07T06:51:08;1.89;93.84
65374;SHT31;52070;53.760;9.678;2022-12-07T06:53:36;1.91;93.88
65374;SHT31;52070;53.760;9.678;2022-12-07T06:56:04;1.88;93.88
65374;SHT31;52070;53.760;9.678;2022-12-07T06:58:31;1.89;93.97
65374;SHT31;52070;53.760;9.678;2022-12-07T07:00:58;1.96;94.05
65374;SHT31;52070;53.760;9.678;2022-12-07T07:03:25;1.92;94.02
65374;SHT31;52070;53.760;9.678;2022-12-07T07:05:52;1.89;94.03
65374;SHT31;52070;53.760;9.678;2022-12-07T07:08:20;1.89;94.03
65374;SHT31;52070;53.760;9.678;2022-12-07T07:10:47;1.92;94.07
65374;SHT31;52070;53.760;9.678;2022-12-07T07:13:14;1.89;94.16
65374;SHT31;52070;53.760;9.678;2022-12-07T07:15:41;1.94;94.15
65374;SHT31;52070;53.760;9.678;2022-12-07T07:18:08;1.94;94.14
65374;SHT31;52070;53.760;9.678;2022-12-07T07:20:37;1.91;94.06
65374;SHT31;52070;53.760;9.678;2022-12-07T07:23:04;1.85;93.91
65374;SHT31;52070;53.760;9.678;2022-12-07T07:25:33;1.83;93.88
65374;SHT31;52070;53.760;9.678;2022-12-07T07:28:00;1.82;93.87
65374;SHT31;52070;53.760;9.678;2022-12-07T07:30:27;1.79;93.85
65374;SHT31;52070;53.760;9.678;2022-12-07T07:32:56;1.79;93.84
65374;SHT31;52070;53.760;9.678;2022-12-07T07:35:23;1.81;93.80
65374;SHT31;52070;53.760;9.678;2022-12-07T07:37:50;1.78;93.78
65374;SHT31;52070;53.760;9.678;2022-12-07T07:40:17;1.81;93.75
65374;SHT31;52070;53.760;9.678;2022-12-07T07:42:48;1.78;93.74
65374;SHT31;52070;53.760;9.678;2022-12-07T07:45:15;1.79;93.75
65374;SHT31;52070;53.760;9.678;2022-12-07T07:47:42;1.78;93.83
65374;SHT31;52070;53.760;9.678;2022-12-07T07:50:10;1.77;93.80
65374;SHT31;52070;53.760;9.678;2022-12-07T07:52:37;1.79;93.88
65374;SHT31;52070;53.760;9.678;2022-12-07T07:55:05;1.79;93.91
65374;SHT31;52070;53.760;9.678;2022-12-07T07:57:34;1.82;93.92
65374;SHT31;52070;53.760;9.678;2022-12-07T08:00:04;1.82;93.93
65374;SHT31;52070;53.760;9.678;2022-12-07T08:02:31;1.85;93.94
65374;SHT31;52070;53.760;9.678;2022-12-07T08:04:58;1.86;93.97
65374;SHT31;52070;53.760;9.678;2022-12-07T08:07:27;1.85;93.91
65374;SHT31;52070;53.760;9.678;2022-12-07T08:09:54;1.89;93.92
65374;SHT31;52070;53.760;9.678;2022-12-07T08:12:21;1.94;93.92
65374;SHT31;52070;53.760;9.678;2022-12-07T08:14:48;1.96;93.82
65374;SHT31;52070;53.760;9.678;2022-12-07T08:17:16;1.99;93.75
65374;SHT31;52070;53.760;9.678;2022-12-07T08:19:44;1.98;93.68
65374;SHT31;52070;53.760;9.678;2022-12-07T08:22:11;1.98;93.64
65374;SHT31;52070;53.760;9.678;2022-12-07T08:24:39;2.01;93.53
65374;SHT31;52070;53.760;9.678;2022-12-07T08:27:06;2.05;93.50
65374;SHT31;52070;53.760;9.678;2022-12-07T08:29:32;2.12;93.48
65374;SHT31;52070;53.760;9.678;2022-12-07T08:32:00;2.09;93.47
65374;SHT31;52070;53.760;9.678;2022-12-07T08:34:33;2.10;93.44
65374;SHT31;52070;53.760;9.678;2022-12-07T08:37:01;2.12;93.48
65374;SHT31;52070;53.760;9.678;2022-12-07T08:39:28;2.12;93.45
65374;SHT31;52070;53.760;9.678;2022-12-07T08:41:55;2.15;93.43
65374;SHT31;52070;53.760;9.678;2022-12-07T08:44:22;2.19;93.46
65374;SHT31;52070;53.760;9.678;2022-12-07T08:46:51;2.22;93.44
65374;SHT31;52070;53.760;9.678;2022-12-07T08:49:20;2.25;93.42
65374;SHT31;52070;53.760;9.678;2022-12-07T08:51:50;2.26;93.47
65374;SHT31;52070;53.760;9.678;2022-12-07T08:54:18;2.30;93.50
65374;SHT31;52070;53.760;9.678;2022-12-07T08:56:47;2.34;93.44
65374;SHT31;52070;53.760;9.678;2022-12-07T08:59:15;2.40;93.45
65374;SHT31;52070;53.760;9.678;2022-12-07T09:01:43;2.50;93.47
65374;SHT31;52070;53.760;9.678;2022-12-07T09:04:10;2.50;93.40
65374;SHT31;52070;53.760;9.678;2022-12-07T09:06:38;2.52;93.30
65374;SHT31;52070;53.760;9.678;2022-12-07T09:09:06;2.47;93.22
65374;SHT31;52070;53.760;9.678;2022-12-07T09:11:35;2.50;93.16
65374;SHT31;52070;53.760;9.678;2022-12-07T09:14:02;2.53;93.13
65374;SHT31;52070;53.760;9.678;2022-12-07T09:16:29;2.56;93.13
65374;SHT31;52070;53.760;9.678;2022-12-07T09:18:56;2.57;93.14
65374;SHT31;52070;53.760;9.678;2022-12-07T09:21:23;2.60;93.12
65374;SHT31;52070;53.760;9.678;2022-12-07T09:23:50;2.61;92.91
65374;SHT31;52070;53.760;9.678;2022-12-07T09:26:18;2.63;92.85
65374;SHT31;52070;53.760;9.678;2022-12-07T09:28:45;2.67;92.83
65374;SHT31;52070;53.760;9.678;2022-12-07T09:31:12;2.70;92.77
65374;SHT31;52070;53.760;9.678;2022-12-07T09:33:39;2.74;92.63
65374;SHT31;52070;53.760;9.678;2022-12-07T09:36:07;2.71;92.53
65374;SHT31;52070;53.760;9.678;2022-12-07T09:38:35;2.73;92.37
65374;SHT31;52070;53.760;9.678;2022-12-07T09:41:05;2.73;92.41
65374;SHT31;52070;53.760;9.678;2022-12-07T09:43:35;2.79;92.44
65374;SHT31;52070;53.760;9.678;2022-12-07T09:46:03;2.77;92.40
65374;SHT31;52070;53.760;9.678;2022-12-07T09:48:32;2.84;92.40
65374;SHT31;52070;53.760;9.678;2022-12-07T09:51:00;2.90;92.47
65374;SHT31;52070;53.760;9.678;2022-12-07T09:53:29;2.91;92.35
65374;SHT31;52070;53.760;9.678;2022-12-07T09:55:57;2.94;92.33
65374;SHT31;52070;53.760;9.678;2022-12-07T09:58:25;3.00;92.28
65374;SHT31;52070;53.760;9.678;2022-12-07T10:00:55;2.97;92.18
65374;SHT31;52070;53.760;9.678;2022-12-07T10:03:23;2.95;92.25
65374;SHT31;52070;53.760;9.678;2022-12-07T10:05:51;3.00;92.32
65374;SHT31;52070;53.760;9.678;2022-12-07T10:08:19;3.04;92.30
65374;SHT31;52070;53.760;9.678;2022-12-07T10:10:50;3.07;92.35
65374;SHT31;52070;53.760;9.678;2022-12-07T10:13:20;3.18;92.21
65374;SHT31;52070;53.760;9.678;2022-12-07T10:15:50;3.15;91.85
65374;SHT31;52070;53.760;9.678;2022-12-07T10:18:26;3.15;91.54
65374;SHT31;52070;53.760;9.678;2022-12-07T10:21:05;3.19;91.41
65374;SHT31;52070;53.760;9.678;2022-12-07T10:23:34;3.25;91.39
65374;SHT31;52070;53.760;9.678;2022-12-07T10:26:19;3.32;91.43
65374;SHT31;52070;53.760;9.678;2022-12-07T10:28:47;3.34;90.96
65374;SHT31;52070;53.760;9.678;2022-12-07T10:31:16;3.42;90.54
65374;SHT31;52070;53.760;9.678;2022-12-07T10:33:51;3.48;90.12
65374;SHT31;52070;53.760;9.678;2022-12-07T10:36:21;3.58;90.18
65374;SHT31;52070;53.760;9.678;2022-12-07T10:38:51;3.59;89.88
65374;SHT31;52070;53.760;9.678;2022-12-07T10:41:18;3.65;89.30
65374;SHT31;52070;53.760;9.678;2022-12-07T10:43:51;3.72;88.57
65374;SHT31;52070;53.760;9.678;2022-12-07T10:46:45;3.78;88.10
65374;SHT31;52070;53.760;9.678;2022-12-07T10:49:38;3.85;87.30
65374;SHT31;52070;53.760;9.678;2022-12-07T10:52:15;3.94;86.58
65374;SHT31;52070;53.760;9.678;2022-12-07T10:54:52;4.00;86.14
65374;SHT31;52070;53.760;9.678;2022-12-07T10:57:34;4.03;85.22
65374;SHT31;52070;53.760;9.678;2022-12-07T11:00:09;4.01;85.09
65374;SHT31;52070;53.760;9.678;2022-12-07T11:05:35;4.04;83.63
65374;SHT31;52070;53.760;9.678;2022-12-07T11:08:15;4.07;83.37
65374;SHT31;52070;53.760;9.678;2022-12-07T11:10:51;4.09;82.97
65374;SHT31;52070;53.760;9.678;2022-12-07T11:13:26;4.07;82.89
65374;SHT31;52070;53.760;9.678;2022-12-07T11:16:23;4.09;82.57
65374;SHT31;52070;53.760;9.678;2022-12-07T11:18:59;4.10;82.76
65374;SHT31;52070;53.760;9.678;2022-12-07T11:21:39;4.18;81.58
65374;SHT31;52070;53.760;9.678;2022-12-07T11:24:15;4.23;81.98
65374;SHT31;52070;53.760;9.678;2022-12-07T11:26:48;4.24;81.10
65374;SHT31;52070;53.760;9.678;2022-12-07T11:29:38;4.29;81.37
65374;SHT31;52070;53.760;9.678;2022-12-07T11:32:14;4.31;81.82
65374;SHT31;52070;53.760;9.678;2022-12-07T11:34:54;4.36;81.13
65374;SHT31;52070;53.760;9.678;2022-12-07T11:37:30;4.41;80.67
65374;SHT31;52070;53.760;9.678;2022-12-07T11:40:00;4.41;80.03
65374;SHT31;52070;53.760;9.678;2022-12-07T11:42:31;4.44;79.70
65374;SHT31;52070;53.760;9.678;2022-12-07T11:45:03;4.45;78.81
65374;SHT31;52070;53.760;9.678;2022-12-07T11:47:43;4.53;79.40
65374;SHT31;52070;53.760;9.678;2022-12-07T11:50:22;4.71;79.43
65374;SHT31;52070;53.760;9.678;2022-12-07T11:52:55;4.84;77.22
65374;SHT31;52070;53.760;9.678;2022-12-07T11:55:26;4.84;75.74
65374;SHT31;52070;53.760;9.678;2022-12-07T11:58:03;5.22;77.53
65374;SHT31;52070;53.760;9.678;2022-12-07T12:00:31;5.37;74.95
65374;SHT31;52070;53.760;9.678;2022-12-07T12:03:03;5.46;74.46
65374;SHT31;52070;53.760;9.678;2022-12-07T12:05:31;5.44;74.15
65374;SHT31;52070;53.760;9.678;2022-12-07T12:08:09;5.39;71.78
65374;SHT31;52070;53.760;9.678;2022-12-07T12:10:49;5.35;73.16
65374;SHT31;52070;53.760;9.678;2022-12-07T12:16:31;5.47;72.43
65374;SHT31;52070;53.760;9.678;2022-12-07T12:19:17;5.49;72.20
65374;SHT31;52070;53.760;9.678;2022-12-07T12:21:47;5.44;72.97
65374;SHT31;52070;53.760;9.678;2022-12-07T12:24:18;5.40;71.94
65374;SHT31;52070;53.760;9.678;2022-12-07T12:26:50;5.19;71.53
65374;SHT31;52070;53.760;9.678;2022-12-07T12:29:21;5.15;72.66
65374;SHT31;52070;53.760;9.678;2022-12-07T12:32:05;5.12;71.35
65374;SHT31;52070;53.760;9.678;2022-12-07T12:34:39;5.02;68.88
65374;SHT31;52070;53.760;9.678;2022-12-07T12:37:44;5.08;69.99
65374;SHT31;52070;53.760;9.678;2022-12-07T12:43:45;4.88;70.39
65374;SHT31;52070;53.760;9.678;2022-12-07T12:46:54;4.89;71.43
65374;SHT31;52070;53.760;9.678;2022-12-07T12:49:36;4.79;70.28
65374;SHT31;52070;53.760;9.678;2022-12-07T12:55:17;4.69;70.42
65374;SHT31;52070;53.760;9.678;2022-12-07T12:57:48;4.68;70.39
65374;SHT31;52070;53.760;9.678;2022-12-07T13:00:36;4.68;71.28
65374;SHT31;52070;53.760;9.678;2022-12-07T13:03:03;4.75;71.71
65374;SHT31;52070;53.760;9.678;2022-12-07T13:05:31;4.78;69.51
65374;SHT31;52070;53.760;9.678;2022-12-07T13:08:00;4.78;68.74
65374;SHT31;52070;53.760;9.678;2022-12-07T13:10:40;4.89;69.50
65374;SHT31;52070;53.760;9.678;2022-12-07T13:13:33;5.05;70.20
65374;SHT31;52070;53.760;9.678;2022-12-07T13:16:39;5.30;70.14
65374;SHT31;52070;53.760;9.678;2022-12-07T13:22:42;5.04;67.43
65374;SHT31;52070;53.760;9.678;2022-12-07T13:25:11;4.95;70.15
65374;SHT31;52070;53.760;9.678;2022-12-07T13:27:41;4.82;67.99
65374;SHT31;52070;53.760;9.678;2022-12-07T13:30:15;4.82;67.49
65374;SHT31;52070;53.760;9.678;2022-12-07T13:32:51;4.84;68.59
65374;SHT31;52070;53.760;9.678;2022-12-07T13:35:29;4.81;68.70
65374;SHT31;52070;53.760;9.678;2022-12-07T13:37:56;4.69;68.88
65374;SHT31;52070;53.760;9.678;2022-12-07T13:40:24;4.62;69.25
65374;SHT31;52070;53.760;9.678;2022-12-07T13:42:57;4.62;67.53
65374;SHT31;52070;53.760;9.678;2022-12-07T13:45:27;4.50;68.19
65374;SHT31;52070;53.760;9.678;2022-12-07T13:48:20;4.43;68.83
65374;SHT31;52070;53.760;9.678;2022-12-07T13:50:55;4.29;69.57
65374;SHT31;52070;53.760;9.678;2022-12-07T13:53:22;4.30;70.19
65374;SHT31;52070;53.760;9.678;2022-12-07T13:55:49;4.23;70.54
65374;SHT31;52070;53.760;9.678;2022-12-07T13:58:25;4.24;70.15
65374;SHT31;52070;53.760;9.678;2022-12-07T14:00:53;4.20;70.28
65374;SHT31;52070;53.760;9.678;2022-12-07T14:03:26;4.20;69.36
65374;SHT31;52070;53.760;9.678;2022-12-07T14:06:23;4.10;68.81
65374;SHT31;52070;53.760;9.678;2022-12-07T14:09:14;4.16;69.44
65374;SHT31;52070;53.760;9.678;2022-12-07T14:11:42;4.10;70.49
65374;SHT31;52070;53.760;9.678;2022-12-07T14:14:14;3.97;69.38
65374;SHT31;52070;53.760;9.678;2022-12-07T14:16:43;3.97;70.06
65374;SHT31;52070;53.760;9.678;2022-12-07T14:19:45;3.96;70.63
65374;SHT31;52070;53.760;9.678;2022-12-07T14:22:27;3.91;71.26
65374;SHT31;52070;53.760;9.678;2022-12-07T14:25:14;3.90;70.20
65374;SHT31;52070;53.760;9.678;2022-12-07T14:27:48;3.79;70.09
65374;SHT31;52070;53.760;9.678;2022-12-07T14:30:18;3.68;69.92
65374;SHT31;52070;53.760;9.678;2022-12-07T14:32:48;3.63;70.21
65374;SHT31;52070;53.760;9.678;2022-12-07T14:35:18;3.54;71.02
65374;SHT31;52070;53.760;9.678;2022-12-07T14:37:46;3.43;70.57
65374;SHT31;52070;53.760;9.678;2022-12-07T14:40:15;3.38;70.72
65374;SHT31;52070;53.760;9.678;2022-12-07T14:42:43;3.31;72.70
65374;SHT31;52070;53.760;9.678;2022-12-07T14:45:13;3.34;71.85
65374;SHT31;52070;53.760;9.678;2022-12-07T14:47:43;3.24;72.50
65374;SHT31;52070;53.760;9.678;2022-12-07T14:50:12;3.14;73.21
65374;SHT31;52070;53.760;9.678;2022-12-07T14:52:39;3.05;72.86
65374;SHT31;52070;53.760;9.678;2022-12-07T14:55:13;2.97;73.57
65374;SHT31;52070;53.760;9.678;2022-12-07T14:57:40;2.90;74.34
65374;SHT31;52070;53.760;9.678;2022-12-07T15:00:09;2.83;73.97
65374;SHT31;52070;53.760;9.678;2022-12-07T15:02:39;2.76;73.41
65374;SHT31;52070;53.760;9.678;2022-12-07T15:05:08;2.73;74.02
65374;SHT31;52070;53.760;9.678;2022-12-07T15:07:36;2.65;74.09
65374;SHT31;52070;53.760;9.678;2022-12-07T15:10:04;2.60;73.91
65374;SHT31;52070;53.760;9.678;2022-12-07T15:12:31;2.56;74.36
65374;SHT31;52070;53.760;9.678;2022-12-07T15:14:58;2.49;74.28
65374;SHT31;52070;53.760;9.678;2022-12-07T15:17:27;2.44;75.21
65374;SHT31;52070;53.760;9.678;2022-12-07T15:19:54;2.37;75.32
65374;SHT31;52070;53.760;9.678;2022-12-07T15:22:22;2.30;75.40
65374;SHT31;52070;53.760;9.678;2022-12-07T15:24:49;2.29;75.44
65374;SHT31;52070;53.760;9.678;2022-12-07T15:27:16;2.26;74.95
65374;SHT31;52070;53.760;9.678;2022-12-07T15:29:43;2.25;75.45
65374;SHT31;52070;53.760;9.678;2022-12-07T15:32:10;2.22;74.76
65374;SHT31;52070;53.760;9.678;2022-12-07T15:34:37;2.16;74.28
65374;SHT31;52070;53.760;9.678;2022-12-07T15:37:04;2.08;74.47
65374;SHT31;52070;53.760;9.678;2022-12-07T15:39:33;2.01;75.15
65374;SHT31;52070;53.760;9.678;2022-12-07T15:42:00;1.92;75.30
65374;SHT31;52070;53.760;9.678;2022-12-07T15:44:27;1.85;75.77
65374;SHT31;52070;53.760;9.678;2022-12-07T15:47:12;1.79;76.30
65374;SHT31;52070;53.760;9.678;2022-12-07T15:49:39;1.74;76.06
65374;SHT31;52070;53.760;9.678;2022-12-07T15:52:06;1.74;75.74
65374;SHT31;52070;53.760;9.678;2022-12-07T15:54:35;1.72;75.50
65374;SHT31;52070;53.760;9.678;2022-12-07T15:57:02;1.69;76.08
65374;SHT31;52070;53.760;9.678;2022-12-07T15:59:29;1.67;75.21
65374;SHT31;52070;53.760;9.678;2022-12-07T16:01:57;1.67;75.60
65374;SHT31;52070;53.760;9.678;2022-12-07T16:04:26;1.61;76.73
65374;SHT31;52070;53.760;9.678;2022-12-07T16:06:53;1.59;76.19
65374;SHT31;52070;53.760;9.678;2022-12-07T16:09:20;1.54;76.79
65374;SHT31;52070;53.760;9.678;2022-12-07T16:11:48;1.45;77.64
65374;SHT31;52070;53.760;9.678;2022-12-07T16:14:17;1.38;78.28
65374;SHT31;52070;53.760;9.678;2022-12-07T16:16:45;1.28;78.65
65374;SHT31;52070;53.760;9.678;2022-12-07T16:19:12;1.31;78.01
65374;SHT31;52070;53.760;9.678;2022-12-07T16:21:39;1.17;79.56
65374;SHT31;52070;53.760;9.678;2022-12-07T16:24:07;1.08;79.87